Pagina principale
METAR-TAF:

METAR-TAF

Aeroporti :

Aeroporto di Tarbes-Lourdes-Pirenei

Tarbes Lourdes, Francia

latitudine: 43-11N, longitudine: 000-00W, altezza: 379 m

Osservazione

Il bollettino è stato emesso 25 minuti fa, alle 05:00 UTC
Vento 5 kt da ovest
Temperature 1°C
Umidità 93%
Pressione 1018 hPa
Visibilità: 5000 m
Nuvoloso ad un'altezza di 600 ft
Nuvoloso ad un'altezza di 1200 ft
Cielo coperto ad un'altezza di 1700 ft
neve debole, foschia

METAR: LFBT 300500Z AUTO 26005KT 5000 -SN BR BKN006 BKN012 OVC017 01/00 Q1018

Ora: 07:25 (05:25 UTC)


TAF: mancante

Osservazioni e previsioni meteorologiche di più di 4000 aeroporti (messaggi METAR e TAF).

Le stazioni disponibili sono rappresentate dai dischi gialli e rossi sulla carta.

Puntare il mouse per vedere il nome della stazione.

Clicca sopra per visualizzare le osservazioni e previsioni meteorologiche.

Per cambiare la mappa : fare clic sui pulsanti verdi con una croce nera per ingrandire, il pulsante verde con un trattino per diminuire, o sulla freccia verde per le mappe adiacenti.


METAR-TAF: